Station BEXA2 - Bethel, AK Image indicating link to RSS feed of recent meteorological observations for station BEXA2


Conditions at BEXA2 as of
(9:04 pm AKDT on 05/19/2024)
0504 GMT on 05/20/2024:
     

Click on the graph icon in the table below to see a time series plot of the last five days of that observation.

5-day plot - Wind Direction Wind Direction (WDIR):SSW ( 210 deg true )
5-day plot - Wind Speed Wind Speed (WSPD): 14 kts
5-day plot - Wind Gust Wind Gust (GST): 21 kts
5-day plot - Air Temperature Air Temperature (ATMP): 41.0 °F
5-day plot - Dew Point Dew Point (DEWP): 34.7 °F
5-day plot - Wind Chill Wind Chill (CHILL): 32.7 °F
5-day plot - Wind Speed at 10 Meters Wind Speed at 10 meters (WSPD10M): 14 kts
5-day plot - Wind Speed at 20 Meters Wind Speed at 20 meters (WSPD20M): 14 kts
5-day plot -  Wind Speed, Wind Gust and Atmospheric Pressure Combined plot of Wind Speed, Gust, and Air Pressure
Previous observations
TIME
(AKDT)
5-day plot - Wind Direction
WDIR
 
5-day plot - Wind Speed
WSPD
kts
5-day plot - Wind Gust
GST
kts
5-day plot - Wave Height
WVHT
ft
5-day plot - Dominant Wave Period
DPD
sec
5-day plot - Average Wave Period
APD
sec
5-day plot - Mean Wave Direction
MWD
 
5-day plot - Atmospheric Pressure
PRES
in
5-day plot - Pressure Tendency
PTDY
in
5-day plot - Air Temperature
ATMP
°F
5-day plot - Water Temperature
WTMP
°F
5-day plot - Dew Point
DEWP
°F
5-day plot - Salinity
SAL
psu
5-day plot - Visibility
VIS
nmi
5-day plot - Tide (above MLLW)
TIDE
ft
2024-05-19 08:54 pmSSW 14 19------ 41.2- 34.9---
2024-05-19 08:44 pmSSW 14 20------ 41.5- 35.2---
2024-05-19 08:34 pmSSW 14 21------ 41.9- 35.6---
2024-05-19 08:24 pmSSW 13 19------ 42.4- 36.1---
2024-05-19 08:14 pmSSW 15 21------ 42.4- 36.0---
2024-05-19 08:04 pmSSW 15 21------ 42.6- 36.1---
2024-05-19 07:44 pmSSW 16 21------ 42.6- 36.3---
2024-05-19 07:34 pmSSW 15 21------ 42.6- 36.5---
2024-05-19 07:24 pmSSW 13 19------ 42.8- 36.9---
2024-05-19 07:14 pmSSW 14 19------ 42.6- 36.9---
2024-05-19 07:04 pmSSW 13 18------ 42.4- 36.9---
2024-05-19 06:54 pmSSW 15 20------ 42.1- 36.5---
2024-05-19 06:44 pmSSW 14 19------ 42.6- 37.0---
2024-05-19 06:34 pmSSW 13 18------ 43.2- 37.4---
2024-05-19 06:24 pmSSW 15 20------ 43.2- 37.4---
2024-05-19 06:14 pmSSW 15 21------ 43.3- 37.6---
2024-05-19 06:04 pmSSW 14 20------ 44.2- 38.1---
2024-05-19 05:54 pmSSW 14 19------ 44.6- 38.1---
2024-05-19 05:44 pmSSW 16 22------ 44.8- 38.3---
2024-05-19 05:34 pmSSW 15 24------ 45.3- 38.7---
2024-05-19 05:24 pm S 16 22------ 45.7- 38.8---
2024-05-19 05:14 pm S 15 23------ 46.8- 39.2---
2024-05-19 05:04 pm S 15 22------ 46.9- 39.0---
2024-05-19 04:54 pm S 13 20------ 47.5- 39.4---
2024-05-19 04:44 pm S 13 19------ 47.5- 38.7---
2024-05-19 04:34 pm SW 12 18------ 47.1- 38.5---
2024-05-19 04:24 pm SW 12 17------ 46.9- 38.3---
2024-05-19 04:14 pmWSW 13 17------ 46.4- 38.7---
2024-05-19 03:54 pmWSW 14 18------ 46.6- 39.0---
2024-05-19 03:24 pm SW 12 17------ 47.3- 38.3---
2024-05-19 03:04 pm SW 11 16------ 47.5- 38.3---
2024-05-19 02:54 pm SW 12 17------ 47.7- 37.6---
2024-05-19 02:44 pm SW 12 16------ 48.0- 38.5---
2024-05-19 02:34 pmSSW 12 19------ 48.0- 39.0---
2024-05-19 02:24 pmSSW 12 18------ 47.5- 39.0---
2024-05-19 02:14 pm S 12 16------ 47.3- 38.3---
2024-05-19 02:04 pmSSW 11 17------ 46.8- 38.3---
2024-05-19 01:54 pmSSW 10 15------ 46.4- 38.1---
2024-05-19 01:44 pm S 11 17------ 46.0- 37.4---
2024-05-19 01:34 pmSSW 11 16------ 46.0- 37.0---
2024-05-19 01:24 pm S 11 14------ 45.5- 36.3---
2024-05-19 01:14 pm S 11 16------ 45.3- 36.1---
2024-05-19 01:04 pm S 10 14------ 45.5- 36.3---
2024-05-19 12:54 pmSSW 11 16------ 45.5- 36.3---
2024-05-19 12:44 pm S 12 15------ 45.3- 35.8---
2024-05-19 12:34 pm S 10 16------ 45.1- 36.1---
2024-05-19 12:24 pm S 9 12------ 44.6- 36.7---
2024-05-19 12:14 pmSSW 9 14------ 43.9- 36.7---
2024-05-19 12:04 pmSSW 9 13------ 43.2- 36.7---
2024-05-19 11:54 amSSW 9 12------ 42.1- 36.0---
2024-05-19 11:44 am S 7 13------ 41.0- 35.2---
2024-05-19 11:34 am S 8 12------ 39.9- 34.5---
2024-05-19 11:24 am S 8 12------ 39.4- 34.2---
2024-05-19 11:04 am S 7 10------ 38.3- 33.3---
2024-05-19 10:44 am S 6 9------ 37.6- 33.3---
2024-05-19 10:34 am S 5 9------ 36.7- 32.7---
2024-05-19 10:24 am S 6 9------ 36.0- 32.2---
2024-05-19 10:14 amSSE 7 10------ 35.2- 31.8---
2024-05-19 10:04 amSSE 7 10------ 35.1- 31.6---
2024-05-19 09:54 amSSE 6 8------ 34.5- 31.1---
2024-05-19 09:44 amSSE 6 9------ 33.8- 30.6---
2024-05-19 09:34 amSSE 5 8------ 33.3- 30.4---
2024-05-19 09:24 amSSE 6 8------ 33.1- 30.4---
2024-05-19 09:14 amSSE 6 8------ 33.1- 30.2---
2024-05-19 09:04 amSSE 7 10------ 33.8- 30.6---
2024-05-19 08:54 am SE 6 8------ 34.7- 31.3---
2024-05-19 08:44 am SE 6 8------ 35.1- 31.3---
2024-05-19 08:34 amSSE 7 9------ 35.2- 31.3---
2024-05-19 08:24 am SE 8 11------ 35.6- 31.6---
2024-05-19 08:14 am SE 7 9------ 35.8- 31.6---
2024-05-19 08:04 am SE 6 9------ 36.0- 31.6---
2024-05-19 07:54 am SE 7 9------ 36.3- 31.8---
2024-05-19 07:44 am SE 7 10------ 36.7- 31.8---
2024-05-19 07:34 am SE 7 9------ 37.2- 32.2---
2024-05-19 07:24 amESE 7 9------ 37.2- 32.2---
2024-05-19 07:14 amESE 5 8------ 37.0- 32.0---
2024-05-19 06:54 am E 4 6------ 36.3- 31.3---
2024-05-19 06:44 am E 4 6------ 36.1- 31.1---
2024-05-19 06:34 am E 4 5------ 36.3- 31.3---
2024-05-19 06:24 amENE 4 5------ 36.3- 31.3---
2024-05-19 06:14 am E 4 6------ 36.5- 31.5---
2024-05-19 06:04 am E 5 7------ 36.9- 31.6---
2024-05-19 05:54 am E 5 7------ 37.2- 32.0---
2024-05-19 05:44 am E 2 4------ 36.9- 31.8---
2024-05-19 05:24 am SE 2 5------ 36.1- 31.6---
2024-05-19 05:04 amNNE 2 3------ 36.7- 31.6---
2024-05-19 04:54 amNNE 3 5------ 36.7- 31.6---
2024-05-19 04:44 amNNE 4 5------ 36.3- 31.5---
2024-05-19 04:34 am NE 5 7------ 37.8- 32.2---
2024-05-19 04:24 amENE 5 8------ 38.3- 32.5---
2024-05-19 04:14 amENE 5 8------ 37.6- 32.4---
2024-05-19 04:04 am NE 5 7------ 37.8- 32.4---
2024-05-19 03:54 am NE 4 6------ 37.9- 32.4---
2024-05-19 03:44 amENE 5 7------ 38.8- 32.9---
2024-05-19 03:34 amENE 4 6------ 38.7- 32.7---
2024-05-19 03:24 am NE 3 5------ 39.0- 32.9---
2024-05-19 03:14 amENE 4 7------ 39.6- 33.3---
2024-05-19 03:04 am E 5 8------ 39.7- 33.1---
2024-05-19 02:54 am E 6 9------ 39.9- 33.3---
2024-05-19 02:44 am E 5 8------ 40.1- 33.4---
2024-05-19 02:34 am E 3 5------ 40.6- 34.0---
2024-05-19 02:24 am E 5 8------ 40.8- 34.2---
2024-05-19 02:14 am E 6 9------ 40.6- 34.0---
2024-05-19 02:04 amENE 6 9------ 40.8- 34.0---
2024-05-19 01:54 amENE 6 10------ 40.8- 34.0---
2024-05-19 01:34 amENE 6 9------ 41.7- 34.2---
2024-05-19 01:24 am E 6 11------ 41.9- 34.2---
2024-05-19 01:14 am E 7 10------ 42.3- 34.5---
2024-05-19 01:04 am E 8 12------ 42.4- 34.3---
2024-05-19 12:54 am E 7 12------ 42.6- 34.5---
2024-05-19 12:44 am E 7 13------ 42.6- 34.7---
2024-05-19 12:34 amENE 8 12------ 43.0- 34.9---
2024-05-19 12:24 amENE 8 12------ 43.2- 34.9---
2024-05-19 12:15 amENE 7 11------ 43.2- 34.9---
2024-05-19 12:04 amENE 7 11------ 43.3- 34.9---
2024-05-18 11:54 pmENE 7 11------ 43.5- 35.1---
2024-05-18 11:44 pmENE 6 10------ 43.9- 35.1---
2024-05-18 11:34 pmENE 7 12------ 44.4- 35.1---
2024-05-18 11:24 pmENE 8 14------ 45.0- 35.1---
2024-05-18 11:14 pmENE 8 14------ 45.3- 35.2---
2024-05-18 11:04 pmENE 7 12------ 45.9- 35.1---
2024-05-18 10:54 pmENE 9 14------ 46.2- 35.1---
2024-05-18 10:44 pmENE 9 15------ 46.8- 35.2---
2024-05-18 10:34 pmENE 9 14------ 46.9- 35.6---
2024-05-18 10:24 pmENE 9 15------ 47.1- 35.4---
2024-05-18 10:14 pmENE 8 13------ 47.3- 35.4---
2024-05-18 10:04 pmENE 8 13------ 47.5- 35.2---
2024-05-18 09:54 pmENE 8 14------ 47.1- 35.8---
2024-05-18 09:44 pmENE 8 12------ 46.8- 35.6---
2024-05-18 09:34 pmENE 7 14------ 46.8- 35.4---
2024-05-18 09:24 pmENE 9 14------ 46.9- 35.2---
2024-05-18 09:14 pmENE 9 16------ 47.5- 35.6---
2024-05-18 09:04 pmENE 10 16------ 47.5- 35.8---
2024-05-18 08:54 pmENE 10 16------ 47.5- 36.1---